Time,TemperatureF,DewpointF,PressureIn,WindDirection,WindDirectionDegrees,WindSpeedMPH,WindSpeedGustMPH,Humidity,HourlyPrecipIn,Conditions,Clouds,dailyrainin,SoftwareType,DateUTC
2013-10-12 00:00:00,62.0,59.0,-100.00,NE,35,8.0,14.0,89,0.00,,,-99.99,,2013-10-12 04:00:00,
2013-10-12 00:44:00,62.0,59.0,-100.00,NE,35,8.0,14.0,89,0.00,,,-99.99,,2013-10-12 04:44:00,
2013-10-12 00:54:00,62.0,59.0,-100.00,NE,35,8.0,14.0,89,0.00,,,-99.99,,2013-10-12 04:54:00,
2013-10-12 01:00:00,62.0,58.0,-100.00,NE,55,6.0,14.0,87,0.00,,,-99.99,,2013-10-12 05:00:00,
2013-10-12 01:43:00,62.0,58.0,-100.00,NE,55,6.0,14.0,87,0.00,,,-99.99,,2013-10-12 05:43:00,
2013-10-12 01:52:00,62.0,58.0,-100.00,NE,55,6.0,14.0,87,0.00,,,-99.99,,2013-10-12 05:52:00,
2013-10-12 02:00:00,62.0,57.0,-100.00,East,93,8.0,15.0,86,0.00,,,-99.99,,2013-10-12 06:00:00,
2013-10-12 02:42:00,62.0,57.0,-100.00,East,93,8.0,15.0,86,0.00,,,-99.99,,2013-10-12 06:42:00,
2013-10-12 02:52:00,62.0,57.0,-100.00,East,93,8.0,15.0,86,0.00,,,-99.99,,2013-10-12 06:52:00,
2013-10-12 03:00:00,61.0,57.0,-100.00,NNE,33,5.0,13.0,86,0.00,,,-99.99,,2013-10-12 07:00:00,
2013-10-12 03:42:00,61.0,57.0,-100.00,NNE,33,5.0,13.0,86,0.00,,,-99.99,,2013-10-12 07:42:00,
2013-10-12 03:52:00,61.0,57.0,-100.00,NNE,33,5.0,13.0,86,0.00,,,-99.99,,2013-10-12 07:52:00,
2013-10-12 05:00:00,62.0,56.0,-100.00,ENE,68,6.0,13.0,82,0.00,,,-99.99,,2013-10-12 09:00:00,
2013-10-12 05:43:00,62.0,56.0,-100.00,ENE,68,6.0,13.0,82,0.00,,,-99.99,,2013-10-12 09:43:00,
2013-10-12 05:54:00,62.0,56.0,-100.00,ENE,68,6.0,13.0,82,0.00,,,-99.99,,2013-10-12 09:54:00,
2013-10-12 06:00:00,61.0,54.0,-100.00,ENE,68,9.0,15.0,78,0.00,,,-99.99,,2013-10-12 10:00:00,
2013-10-12 06:42:00,61.0,54.0,-100.00,ENE,68,9.0,15.0,78,0.00,,,-99.99,,2013-10-12 10:42:00,
2013-10-12 06:53:00,61.0,54.0,-100.00,ENE,68,9.0,15.0,78,0.00,,,-99.99,,2013-10-12 10:53:00,
2013-10-12 07:00:00,60.0,53.0,-100.00,ENE,60,6.0,12.0,76,0.00,,,-99.99,,2013-10-12 11:00:00,
2013-10-12 07:43:00,60.0,53.0,-100.00,ENE,60,6.0,12.0,76,0.00,,,-99.99,,2013-10-12 11:43:00,
2013-10-12 07:52:00,60.0,53.0,-100.00,ENE,60,6.0,12.0,76,0.00,,,-99.99,,2013-10-12 11:52:00,
2013-10-12 08:00:00,60.0,52.0,-100.00,ENE,58,7.0,14.0,74,0.00,,,-99.99,,2013-10-12 12:00:00,
2013-10-12 08:42:00,60.0,52.0,-100.00,ENE,58,7.0,14.0,74,0.00,,,-99.99,,2013-10-12 12:42:00,
2013-10-12 08:52:00,60.0,52.0,-100.00,ENE,58,7.0,14.0,74,0.00,,,-99.99,,2013-10-12 12:52:00,
2013-10-12 09:00:00,62.0,53.0,-100.00,ENE,62,6.0,14.0,74,0.00,,,-99.99,,2013-10-12 13:00:00,
2013-10-12 09:42:00,62.0,53.0,-100.00,ENE,62,6.0,14.0,74,0.00,,,-99.99,,2013-10-12 13:42:00,
2013-10-12 09:52:00,62.0,53.0,-100.00,ENE,62,6.0,14.0,74,0.00,,,-99.99,,2013-10-12 13:52:00,
2013-10-12 10:00:00,64.0,54.0,-100.00,NE,43,8.0,15.0,69,0.00,,,-99.99,,2013-10-12 14:00:00,
2013-10-12 10:42:00,64.0,54.0,-100.00,NE,43,8.0,15.0,69,0.00,,,-99.99,,2013-10-12 14:42:00,
2013-10-12 10:52:00,64.0,54.0,-100.00,NE,43,8.0,15.0,69,0.00,,,-99.99,,2013-10-12 14:52:00,
2013-10-12 11:00:00,64.0,54.0,-100.00,ENE,63,11.0,15.0,70,0.00,,,-99.99,,2013-10-12 15:00:00,
2013-10-12 11:44:00,64.0,54.0,-100.00,ENE,63,11.0,15.0,70,0.00,,,-99.99,,2013-10-12 15:44:00,
2013-10-12 11:54:00,64.0,54.0,-100.00,ENE,63,11.0,15.0,70,0.00,,,-99.99,,2013-10-12 15:54:00,
2013-10-12 12:00:00,67.0,54.0,-100.00,NE,49,16.0,21.0,64,0.00,,,-99.99,,2013-10-12 16:00:00,
2013-10-12 12:43:00,67.0,54.0,-100.00,NE,49,16.0,21.0,64,0.00,,,-99.99,,2013-10-12 16:43:00,
2013-10-12 12:53:00,67.0,54.0,-100.00,NE,49,16.0,21.0,64,0.00,,,-99.99,,2013-10-12 16:53:00,
2013-10-12 13:00:00,67.0,56.0,-100.00,ENE,70,8.0,22.0,69,0.00,,,-99.99,,2013-10-12 17:00:00,
2013-10-12 13:42:00,67.0,56.0,-100.00,ENE,70,8.0,22.0,69,0.00,,,-99.99,,2013-10-12 17:42:00,
2013-10-12 13:53:00,67.0,56.0,-100.00,ENE,70,8.0,22.0,69,0.00,,,-99.99,,2013-10-12 17:53:00,
2013-10-12 14:00:00,67.0,57.0,-100.00,NE,48,10.0,21.0,69,0.00,,,-99.99,,2013-10-12 18:00:00,
2013-10-12 14:42:00,67.0,57.0,-100.00,NE,48,10.0,21.0,69,0.00,,,-99.99,,2013-10-12 18:42:00,
2013-10-12 14:52:00,67.0,57.0,-100.00,NE,48,10.0,21.0,69,0.00,,,-99.99,,2013-10-12 18:52:00,
2013-10-12 15:00:00,67.0,57.0,-100.00,East,88,7.0,21.0,70,0.00,,,-99.99,,2013-10-12 19:00:00,
2013-10-12 15:42:00,67.0,57.0,-100.00,East,88,7.0,21.0,70,0.00,,,-99.99,,2013-10-12 19:42:00,
2013-10-12 15:52:00,67.0,57.0,-100.00,East,88,7.0,21.0,70,0.00,,,-99.99,,2013-10-12 19:52:00,
2013-10-12 16:00:00,66.0,57.0,-100.00,ENE,69,12.0,26.0,72,0.00,,,-99.99,,2013-10-12 20:00:00,
2013-10-12 16:43:00,66.0,57.0,-100.00,ENE,69,12.0,26.0,72,0.00,,,-99.99,,2013-10-12 20:43:00,
2013-10-12 16:52:00,66.0,57.0,-100.00,ENE,69,12.0,26.0,72,0.00,,,-99.99,,2013-10-12 20:52:00,
2013-10-12 17:00:00,63.0,57.0,-100.00,East,87,11.0,23.0,82,0.00,,,-99.99,,2013-10-12 21:00:00,
2013-10-12 17:43:00,63.0,57.0,-100.00,East,87,11.0,23.0,82,0.00,,,-99.99,,2013-10-12 21:43:00,
2013-10-12 17:54:00,63.0,57.0,-100.00,East,87,11.0,23.0,82,0.00,,,-99.99,,2013-10-12 21:54:00,
2013-10-12 18:00:00,61.0,58.0,-100.00,ENE,75,10.0,25.0,89,0.01,,,-99.99,,2013-10-12 22:00:00,
2013-10-12 18:43:00,61.0,58.0,-100.00,ENE,75,10.0,25.0,89,0.01,,,-99.99,,2013-10-12 22:43:00,
2013-10-12 18:54:00,61.0,58.0,-100.00,ENE,75,10.0,25.0,89,0.01,,,-99.99,,2013-10-12 22:54:00,
2013-10-12 19:00:00,61.0,58.0,-100.00,ENE,72,7.0,25.0,90,0.01,,,-99.99,,2013-10-12 23:00:00,
2013-10-12 19:42:00,61.0,58.0,-100.00,ENE,72,7.0,25.0,90,0.01,,,-99.99,,2013-10-12 23:42:00,
2013-10-12 19:52:00,61.0,58.0,-100.00,ENE,72,7.0,25.0,90,0.01,,,-99.99,,2013-10-12 23:52:00,
2013-10-12 20:00:00,60.0,58.0,-100.00,ENE,76,8.0,20.0,92,0.00,,,-99.99,,2013-10-13 00:00:00,
2013-10-12 20:42:00,60.0,58.0,-100.00,ENE,76,8.0,20.0,92,0.00,,,-99.99,,2013-10-13 00:42:00,
2013-10-12 20:52:00,60.0,58.0,-100.00,ENE,76,8.0,20.0,92,0.00,,,-99.99,,2013-10-13 00:52:00,
2013-10-12 21:00:00,60.0,58.0,-100.00,East,85,12.0,18.0,92,0.00,,,-99.99,,2013-10-13 01:00:00,
2013-10-12 21:42:00,60.0,58.0,-100.00,East,85,12.0,18.0,92,0.00,,,-99.99,,2013-10-13 01:42:00,
2013-10-12 21:52:00,60.0,58.0,-100.00,East,85,12.0,18.0,92,0.00,,,-99.99,,2013-10-13 01:52:00,
2013-10-12 22:00:00,60.0,58.0,-100.00,ENE,69,9.0,18.0,92,0.00,,,-99.99,,2013-10-13 02:00:00,
2013-10-12 22:43:00,60.0,58.0,-100.00,ENE,69,9.0,18.0,92,0.00,,,-99.99,,2013-10-13 02:43:00,
2013-10-12 22:52:00,60.0,58.0,-100.00,ENE,69,9.0,18.0,92,0.00,,,-99.99,,2013-10-13 02:52:00,
2013-10-12 23:00:00,-999.0,-99.9,-100.00,ENE,57,9.0,18.0,-999,-99.99,,,-99.99,,2013-10-13 03:00:00,
2013-10-12 23:45:00,60.0,58.0,-100.00,ENE,57,9.0,18.0,92,0.00,,,-99.99,,2013-10-13 03:45:00,
2013-10-12 23:54:00,60.0,58.0,-100.00,ENE,57,9.0,18.0,92,0.00,,,-99.99,,2013-10-13 03:54:00,